Time;durP1;ratioP1;P1;durP2;ratioP2;P2;SDS_P1;SDS_P2;PMS_P1;PMS_P2;Temp;Humidity;BMP_temperature;BMP_pressure;BME280_temperature;BME280_humidity;BME280_pressure;Samples;Min_cycle;Max_cycle;Signal;HPM_P1;HPM_P2
2023/06/16 00:01:06;;;;;;;0.40;0.30;;;;;;;19.53;100.00;94830.75;5071295;28;20441;-68
2023/06/16 00:03:34;;;;;;;0.50;0.40;;;;;;;19.53;100.00;94835.38;5069997;28;20484;-68
2023/06/16 00:06:12;;;;;;;0.50;0.40;;;;;;;19.64;100.00;94842.63;5070363;28;20930;-68
2023/06/16 00:08:41;;;;;;;0.60;0.50;;;;;;;19.62;100.00;94827.97;5070810;28;20953;-67
2023/06/16 00:11:09;;;;;;;0.63;0.40;;;;;;;19.69;100.00;94838.13;5074538;28;20518;-68
2023/06/16 00:13:37;;;;;;;0.40;0.30;;;;;;;19.69;100.00;94838.94;5074752;28;20940;-68
2023/06/16 00:16:09;;;;;;;0.50;0.40;;;;;;;19.72;100.00;94824.81;5074582;28;20440;-68
2023/06/16 00:18:40;;;;;;;0.73;0.50;;;;;;;19.81;100.00;94830.84;5074555;28;20480;-68
2023/06/16 00:21:09;;;;;;;0.40;0.30;;;;;;;19.74;100.00;94819.88;5074603;28;20442;-68
2023/06/16 00:23:38;;;;;;;0.40;0.20;;;;;;;19.51;100.00;94821.47;5074706;28;20433;-68
2023/06/16 00:26:06;;;;;;;0.40;0.33;;;;;;;19.53;100.00;94816.56;5073985;28;20465;-68
2023/06/16 00:28:34;;;;;;;0.40;0.30;;;;;;;19.55;100.00;94817.00;5074948;28;20845;-68
2023/06/16 00:31:03;;;;;;;0.40;0.20;;;;;;;19.57;100.00;94806.69;5072899;28;20473;-68
2023/06/16 00:33:32;;;;;;;1.00;0.33;;;;;;;19.55;100.00;94801.66;5073833;28;20441;-68
2023/06/16 00:36:01;;;;;;;0.50;0.37;;;;;;;19.60;100.00;94811.41;5073853;28;20445;-69
2023/06/16 00:38:29;;;;;;;0.50;0.40;;;;;;;19.30;100.00;94812.72;5074482;28;20442;-65
2023/06/16 00:40:58;;;;;;;0.60;0.43;;;;;;;18.98;100.00;94803.63;5073976;28;20433;-69
2023/06/16 00:43:26;;;;;;;0.90;0.80;;;;;;;18.86;100.00;94808.97;5071665;28;20446;-68
2023/06/16 00:45:55;;;;;;;3.27;0.40;;;;;;;18.94;100.00;94800.03;5061558;28;20473;-69
2023/06/16 00:48:23;;;;;;;0.50;0.30;;;;;;;19.21;100.00;94806.66;5073625;28;20437;-68
2023/06/16 00:50:54;;;;;;;0.90;0.40;;;;;;;19.41;100.00;94803.91;5073015;28;20477;-68
2023/06/16 00:53:25;;;;;;;1.03;0.47;;;;;;;19.14;100.00;94806.44;5073867;28;20444;-68
2023/06/16 00:55:53;;;;;;;0.50;0.30;;;;;;;19.09;100.00;94803.97;5073964;28;20922;-68
2023/06/16 00:58:22;;;;;;;0.47;0.40;;;;;;;19.34;100.00;94800.16;5072362;28;20450;-70
2023/06/16 01:00:51;;;;;;;0.57;0.37;;;;;;;19.49;100.00;94803.00;5086340;28;20445;-69
2023/06/16 01:03:21;;;;;;;0.40;0.30;;;;;;;19.61;100.00;94791.44;5075760;28;20438;-68
2023/06/16 01:05:54;;;;;;;0.50;0.43;;;;;;;19.64;100.00;94780.81;5072642;28;20442;-69
2023/06/16 01:08:35;;;;;;;0.87;0.87;;;;;;;19.28;100.00;94782.69;5072713;28;20941;-68
2023/06/16 01:11:11;;;;;;;0.40;0.30;;;;;;;19.36;100.00;94781.81;5072090;28;20500;-68
2023/06/16 01:13:48;;;;;;;0.50;0.30;;;;;;;19.40;100.00;94780.84;5049952;28;20552;-69
2023/06/16 01:16:22;;;;;;;0.63;0.60;;;;;;;19.43;100.00;94780.16;5073576;28;20441;-69
2023/06/16 01:18:53;;;;;;;0.50;0.40;;;;;;;19.35;100.00;94777.56;5073496;28;20529;-69
2023/06/16 01:21:32;;;;;;;0.40;0.30;;;;;;;19.37;100.00;94778.03;5072940;28;20434;-68
2023/06/16 01:24:08;;;;;;;0.40;0.33;;;;;;;19.17;100.00;94777.00;5073706;28;20442;-68
2023/06/16 01:26:44;;;;;;;0.50;0.50;;;;;;;18.94;100.00;94775.88;5072858;28;20881;-70
2023/06/16 01:29:13;;;;;;;0.50;0.40;;;;;;;19.16;100.00;94780.81;5071779;28;20461;-69
2023/06/16 01:31:43;;;;;;;0.50;0.40;;;;;;;19.17;100.00;94771.63;5072917;28;20473;-69
2023/06/16 01:34:13;;;;;;;0.50;0.30;;;;;;;19.03;100.00;94769.28;5073276;28;20429;-68
2023/06/16 01:36:43;;;;;;;0.47;0.40;;;;;;;19.03;100.00;94763.91;5072982;28;20964;-70
2023/06/16 01:39:16;;;;;;;0.43;0.40;;;;;;;19.27;100.00;94759.66;5072786;28;20583;-70
2023/06/16 01:41:45;;;;;;;0.50;0.40;;;;;;;19.14;100.00;94736.59;5073473;28;20476;-71
2023/06/16 01:44:14;;;;;;;1.53;0.67;;;;;;;19.22;100.00;94759.88;5073155;28;20958;-70
2023/06/16 01:46:44;;;;;;;0.50;0.30;;;;;;;19.23;100.00;94756.84;5073089;28;20488;-68
2023/06/16 01:49:13;;;;;;;0.50;0.40;;;;;;;19.18;100.00;94754.38;5071952;28;20471;-70
2023/06/16 01:51:42;;;;;;;0.47;0.30;;;;;;;19.30;100.00;94756.28;5072562;28;20473;-70
2023/06/16 01:54:12;;;;;;;1.63;0.43;;;;;;;19.30;100.00;94761.66;5072230;28;20945;-70
2023/06/16 01:56:40;;;;;;;0.60;0.60;;;;;;;19.10;100.00;94752.59;5071955;28;20441;-70
2023/06/16 01:59:08;;;;;;;0.60;0.40;;;;;;;19.20;100.00;94752.13;5071944;28;20863;-71
2023/06/16 02:01:41;;;;;;;0.40;0.20;;;;;;;19.19;100.00;94749.81;5071870;28;20442;-70
2023/06/16 02:04:12;;;;;;;0.40;0.20;;;;;;;19.17;100.00;94750.16;5071417;28;20787;-71
2023/06/16 02:06:44;;;;;;;2.17;0.60;;;;;;;19.18;100.00;94749.00;5071743;28;20438;-71
2023/06/16 02:09:17;;;;;;;0.40;0.20;;;;;;;19.24;100.00;94752.25;5071819;28;20599;-71
2023/06/16 02:11:49;;;;;;;0.70;0.50;;;;;;;19.23;100.00;94751.47;5071703;28;20470;-71
2023/06/16 02:14:18;;;;;;;0.60;0.30;;;;;;;18.68;100.00;94665.31;5071873;28;20438;-71
2023/06/16 02:16:50;;;;;;;0.60;0.53;;;;;;;19.23;100.00;94748.78;5072388;28;20857;-71
2023/06/16 02:19:19;;;;;;;0.40;0.30;;;;;;;19.25;100.00;94751.16;5071557;28;20442;-70
2023/06/16 02:21:47;;;;;;;0.47;0.33;;;;;;;19.11;100.00;94743.41;5072625;28;20473;-71
2023/06/16 02:24:17;;;;;;;0.40;0.30;;;;;;;18.94;100.00;94744.44;5070215;28;20441;-72
2023/06/16 02:26:45;;;;;;;0.50;0.40;;;;;;;18.99;100.00;94748.81;5071455;28;20430;-72
2023/06/16 02:29:13;;;;;;;0.70;0.50;;;;;;;19.10;100.00;94751.81;5071130;28;20804;-71
2023/06/16 02:31:47;;;;;;;0.60;0.60;;;;;;;18.92;100.00;94725.16;5070602;28;20477;-72
2023/06/16 02:34:16;;;;;;;0.40;0.30;;;;;;;19.17;100.00;94752.03;5071158;28;20442;-71
2023/06/16 02:36:45;;;;;;;0.57;0.53;;;;;;;19.21;100.00;94751.03;5070985;28;20446;-72
2023/06/16 02:39:14;;;;;;;0.40;0.30;;;;;;;19.18;100.00;94742.84;5070126;28;20484;-72
2023/06/16 02:41:45;;;;;;;0.50;0.30;;;;;;;19.13;100.00;94740.38;5071247;28;20877;-72
2023/06/16 02:44:13;;;;;;;0.57;0.57;;;;;;;18.80;100.00;94741.28;5071327;28;20438;-72
2023/06/16 02:46:42;;;;;;;0.40;0.30;;;;;;;18.80;100.00;94737.81;5071480;28;20499;-72
2023/06/16 02:49:12;;;;;;;0.50;0.40;;;;;;;18.97;100.00;94740.31;5070480;28;20528;-72
2023/06/16 02:51:40;;;;;;;0.97;0.40;;;;;;;19.10;100.00;94743.78;5070764;28;20929;-69
2023/06/16 02:54:09;;;;;;;0.80;0.60;;;;;;;19.11;100.00;94734.56;5070395;28;20449;-72
2023/06/16 02:56:37;;;;;;;0.60;0.53;;;;;;;19.16;100.00;94734.34;5071264;28;20598;-71
2023/06/16 02:59:07;;;;;;;1.10;1.00;;;;;;;19.12;100.00;94739.63;5071124;28;20441;-72
2023/06/16 03:01:36;;;;;;;1.00;0.30;;;;;;;18.99;100.00;94730.78;5070145;28;20449;-72
2023/06/16 03:04:05;;;;;;;0.50;0.40;;;;;;;18.98;100.00;94733.78;5070311;28;20445;-71
2023/06/16 03:06:34;;;;;;;0.50;0.37;;;;;;;18.68;100.00;94676.84;5070525;28;20567;-72
2023/06/16 03:09:04;;;;;;;0.90;0.53;;;;;;;19.08;100.00;94733.34;5070410;28;20438;-72
2023/06/16 03:11:33;;;;;;;0.43;0.33;;;;;;;19.10;100.00;94730.34;5073492;28;20473;-73
2023/06/16 03:14:02;;;;;;;0.50;0.43;;;;;;;19.10;100.00;94735.72;5091243;28;20442;-73
2023/06/16 03:16:32;;;;;;;0.60;0.53;;;;;;;19.10;100.00;94733.78;5071417;28;20972;-73
2023/06/16 03:19:00;;;;;;;11.13;0.40;;;;;;;19.21;100.00;94736.81;5071437;28;20441;-72
2023/06/16 03:21:29;;;;;;;0.57;0.50;;;;;;;19.23;100.00;94731.88;5070379;28;20484;-72
2023/06/16 03:23:57;;;;;;;0.50;0.40;;;;;;;19.18;100.00;94727.50;5070015;28;20960;-72
2023/06/16 03:26:26;;;;;;;0.40;0.30;;;;;;;19.29;100.00;94735.91;5069756;28;20814;-71
2023/06/16 03:28:54;;;;;;;0.70;0.70;;;;;;;19.28;100.00;94731.66;5069934;28;20444;-70
2023/06/16 03:31:22;;;;;;;0.50;0.40;;;;;;;19.36;100.00;94730.75;5071283;28;21038;-70
2023/06/16 03:33:52;;;;;;;0.50;0.30;;;;;;;19.44;100.00;94736.03;5069516;28;20471;-69
2023/06/16 03:36:20;;;;;;;0.40;0.30;;;;;;;19.50;100.00;94728.53;5070197;28;20491;-71
2023/06/16 03:38:48;;;;;;;0.40;0.30;;;;;;;19.45;100.00;94731.44;5070531;28;20437;-71
2023/06/16 03:41:17;;;;;;;0.80;0.80;;;;;;;19.15;100.00;94732.78;5070290;28;20933;-70
2023/06/16 03:43:45;;;;;;;0.90;0.70;;;;;;;19.27;100.00;94733.56;5072246;28;20434;-71
2023/06/16 03:46:13;;;;;;;0.60;0.50;;;;;;;19.48;100.00;94736.16;5073943;28;20460;-70
2023/06/16 03:48:42;;;;;;;0.50;0.30;;;;;;;19.61;100.00;94734.97;5074810;28;20441;-69
2023/06/16 03:51:12;;;;;;;0.50;0.40;;;;;;;19.74;100.00;94714.22;5074556;28;20469;-70
2023/06/16 03:53:40;;;;;;;0.87;0.87;;;;;;;19.74;100.00;94730.34;5074244;28;20449;-69
2023/06/16 03:56:08;;;;;;;0.50;0.40;;;;;;;19.61;100.00;94718.84;5074236;28;20437;-70
2023/06/16 03:58:40;;;;;;;0.50;0.40;;;;;;;19.38;100.00;94713.19;5074618;28;20433;-69
2023/06/16 04:01:09;;;;;;;0.40;0.20;;;;;;;19.58;100.00;94711.50;5074238;28;20831;-69
2023/06/16 04:03:38;;;;;;;0.40;0.30;;;;;;;19.88;100.00;94709.25;5061930;28;20444;-56
2023/06/16 04:06:06;;;;;;;0.43;0.33;;;;;;;20.17;100.00;94708.91;5074172;28;20445;-56
2023/06/16 04:08:36;;;;;;;0.70;0.70;;;;;;;20.01;100.00;94700.78;5074621;28;20438;-56
2023/06/16 04:11:05;;;;;;;1.80;0.73;;;;;;;20.08;100.00;94705.59;5073701;28;20502;-55
2023/06/16 04:13:33;;;;;;;0.60;0.30;;;;;;;20.41;100.00;94708.81;5074092;28;20448;-56
2023/06/16 04:16:02;;;;;;;0.43;0.30;;;;;;;20.54;100.00;94696.06;5072568;28;20473;-55
2023/06/16 04:18:30;;;;;;;0.47;0.47;;;;;;;20.73;100.00;94698.84;5074313;28;20434;-56
2023/06/16 04:20:58;;;;;;;0.70;0.40;;;;;;;20.90;100.00;94701.16;5074336;28;20491;-56
2023/06/16 04:23:27;;;;;;;0.60;0.40;;;;;;;20.87;100.00;94699.19;5073621;28;20441;-56
2023/06/16 04:25:57;;;;;;;0.50;0.40;;;;;;;20.86;100.00;94701.09;5073893;28;20514;-56
2023/06/16 04:28:25;;;;;;;0.50;0.40;;;;;;;20.83;100.00;94691.00;5074199;28;20445;-56
2023/06/16 04:30:56;;;;;;;0.40;0.30;;;;;;;20.96;100.00;94691.69;5073959;28;20438;-56
2023/06/16 04:33:24;;;;;;;0.40;0.30;;;;;;;20.96;100.00;94686.31;5074120;28;20503;-56
2023/06/16 04:35:53;;;;;;;0.50;0.30;;;;;;;21.04;100.00;94685.34;5074680;28;20845;-58
2023/06/16 04:38:23;;;;;;;0.50;0.50;;;;;;;21.13;100.00;94680.56;5074155;28;20506;-58
2023/06/16 04:40:52;;;;;;;0.47;0.30;;;;;;;21.10;100.00;94688.59;5074201;28;20495;-57
2023/06/16 04:43:22;;;;;;;0.40;0.30;;;;;;;21.24;100.00;94683.50;5074191;28;20521;-58
2023/06/16 04:45:50;;;;;;;0.40;0.30;;;;;;;21.14;100.00;94678.66;5073796;28;20937;-57
2023/06/16 04:48:19;;;;;;;2.83;0.60;;;;;;;21.29;100.00;94686.72;5074258;28;20441;-57
2023/06/16 04:50:48;;;;;;;8.73;0.30;;;;;;;21.47;100.00;94687.09;5073683;28;20437;-58
2023/06/16 04:53:16;;;;;;;0.97;0.97;;;;;;;21.24;100.00;94687.00;5074265;28;20873;-58
2023/06/16 04:55:44;;;;;;;0.70;0.43;;;;;;;21.48;100.00;94678.66;5072999;28;20441;-57
2023/06/16 04:58:13;;;;;;;0.40;0.30;;;;;;;21.43;100.00;94684.31;5074187;28;20876;-57
2023/06/16 05:00:43;;;;;;;0.63;0.50;;;;;;;21.50;100.00;94675.63;5073789;28;20516;-56
2023/06/16 05:03:12;;;;;;;0.50;0.43;;;;;;;21.24;100.00;94626.91;5074311;28;20440;-57
2023/06/16 05:05:40;;;;;;;0.50;0.30;;;;;;;21.71;100.00;94670.66;5073740;28;20433;-56
2023/06/16 05:08:09;;;;;;;0.70;0.67;;;;;;;21.69;100.00;94675.63;5073258;28;20529;-57
2023/06/16 05:10:37;;;;;;;0.60;0.50;;;;;;;21.97;100.00;94667.34;5073380;28;20885;-57
2023/06/16 05:13:06;;;;;;;0.47;0.33;;;;;;;22.01;100.00;94671.66;5073830;28;20488;-51
2023/06/16 05:15:34;;;;;;;0.60;0.60;;;;;;;21.94;100.00;94671.53;5073496;28;20884;-52
2023/06/16 05:18:04;;;;;;;1.63;0.83;;;;;;;21.64;100.00;94665.13;5073192;28;20441;-52
2023/06/16 05:20:33;;;;;;;0.87;0.60;;;;;;;21.27;100.00;94662.03;5073440;28;21012;-52
2023/06/16 05:23:03;;;;;;;0.60;0.60;;;;;;;21.52;100.00;94668.75;5072910;28;20477;-52
2023/06/16 05:25:31;;;;;;;1.33;0.50;;;;;;;21.84;100.00;94671.28;5073451;28;20445;-52
2023/06/16 05:28:00;;;;;;;1.30;1.23;;;;;;;21.69;100.00;94670.22;5073403;28;20454;-51
2023/06/16 05:30:28;;;;;;;0.67;0.40;;;;;;;21.70;100.00;94676.41;5073354;28;20438;-51
2023/06/16 05:32:57;;;;;;;1.03;1.03;;;;;;;21.42;100.00;94669.28;5046855;28;20477;-51
2023/06/16 05:35:27;;;;;;;1.07;0.70;;;;;;;21.78;100.00;94672.72;5073291;28;20592;-51
2023/06/16 05:37:55;;;;;;;1.30;0.63;;;;;;;21.59;100.00;94649.22;5072914;28;20460;-51
2023/06/16 05:40:23;;;;;;;0.63;0.50;;;;;;;22.03;100.00;94665.94;5073300;28;20469;-52
2023/06/16 05:42:52;;;;;;;0.50;0.40;;;;;;;22.13;100.00;94668.81;5073143;28;20437;-50
2023/06/16 05:45:20;;;;;;;0.60;0.50;;;;;;;22.37;100.00;94670.41;5072932;28;20465;-50
2023/06/16 05:47:49;;;;;;;0.90;0.70;;;;;;;22.14;100.00;94670.38;5073218;28;20990;-51
2023/06/16 05:50:18;;;;;;;1.37;1.37;;;;;;;21.59;100.00;94597.19;5072400;28;20433;-51
2023/06/16 05:52:48;;;;;;;2.00;1.90;;;;;;;21.60;100.00;94669.66;5072700;28;20477;-51
2023/06/16 05:55:16;;;;;;;1.63;1.53;;;;;;;21.35;100.00;94682.59;5070050;28;20469;-51
2023/06/16 05:57:44;;;;;;;0.70;0.50;;;;;;;21.35;100.00;94682.59;5072936;28;20481;-51
2023/06/16 06:00:14;;;;;;;2.60;1.30;;;;;;;21.52;100.00;94670.66;5072729;28;20438;-51
2023/06/16 06:02:42;;;;;;;1.30;1.13;;;;;;;21.82;100.00;94690.53;5072932;28;20446;-51
2023/06/16 06:05:11;;;;;;;1.47;1.00;;;;;;;21.53;100.00;94693.75;5072379;28;20491;-51
2023/06/16 06:07:39;;;;;;;1.57;1.47;;;;;;;21.77;100.00;94679.25;5073232;28;20448;-51
2023/06/16 06:10:10;;;;;;;1.77;1.67;;;;;;;21.65;100.00;94682.09;5072220;28;20469;-51
2023/06/16 06:12:38;;;;;;;1.43;1.33;;;;;;;22.28;100.00;94685.28;5059924;28;20505;-51
2023/06/16 06:15:08;;;;;;;1.07;0.70;;;;;;;22.16;100.00;94682.75;5072401;28;20434;-51
2023/06/16 06:17:36;;;;;;;2.47;2.37;;;;;;;22.27;100.00;94683.69;5072520;28;20444;-51
2023/06/16 06:20:06;;;;;;;2.03;1.93;;;;;;;22.10;100.00;94674.94;5072234;28;20437;-51
2023/06/16 06:22:34;;;;;;;0.77;0.77;;;;;;;22.31;100.00;94681.88;5072582;28;20580;-51
2023/06/16 06:25:04;;;;;;;1.03;0.80;;;;;;;22.64;100.00;94682.09;5072476;28;20438;-51
2023/06/16 06:27:34;;;;;;;1.37;0.97;;;;;;;22.46;100.00;94680.97;5071889;28;20858;-51
2023/06/16 06:30:02;;;;;;;0.80;0.80;;;;;;;22.82;100.00;94677.00;5072256;28;20507;-51
2023/06/16 06:32:31;;;;;;;0.77;0.77;;;;;;;23.06;100.00;94684.69;5071850;28;20505;-51
2023/06/16 06:34:59;;;;;;;0.60;0.60;;;;;;;23.78;100.00;94674.53;5072178;28;20448;-51
2023/06/16 06:37:30;;;;;;;0.60;0.60;;;;;;;24.09;100.00;94684.19;5072177;28;20464;-51
2023/06/16 06:39:59;;;;;;;0.83;0.83;;;;;;;23.35;100.00;94681.28;5072221;28;20438;-59
2023/06/16 06:42:27;;;;;;;1.90;0.80;;;;;;;23.92;100.00;94672.78;5072304;28;20429;-59
2023/06/16 06:44:57;;;;;;;0.90;0.63;;;;;;;23.51;100.00;94681.91;5071964;28;20530;-58
2023/06/16 06:47:25;;;;;;;3.33;0.70;;;;;;;23.84;100.00;94671.13;5072022;28;20464;-58
2023/06/16 06:49:55;;;;;;;1.27;1.17;;;;;;;23.78;100.00;94679.94;5071962;28;20513;-58
2023/06/16 06:52:23;;;;;;;2.40;2.20;;;;;;;23.40;100.00;94681.00;5071561;28;20444;-59
2023/06/16 06:54:52;;;;;;;0.70;0.67;;;;;;;23.82;100.00;94673.41;5071377;28;20503;-59
2023/06/16 06:57:20;;;;;;;0.60;0.40;;;;;;;24.43;100.00;94667.56;5071615;28;20852;-59
2023/06/16 06:59:48;;;;;;;2.17;2.07;;;;;;;24.23;100.00;94662.69;5072120;28;20521;-59
2023/06/16 07:02:18;;;;;;;1.10;1.00;;;;;;;23.97;100.00;94672.44;5065000;28;20435;-59
2023/06/16 07:04:46;;;;;;;0.97;0.97;;;;;;;23.59;100.00;94667.31;5064609;28;20446;-59
2023/06/16 07:07:15;;;;;;;5.30;0.73;;;;;;;24.00;100.00;94668.22;5071471;28;20488;-59
2023/06/16 07:09:43;;;;;;;0.60;0.50;;;;;;;24.20;100.00;94668.84;5070793;28;20453;-58
2023/06/16 07:12:12;;;;;;;0.97;0.97;;;;;;;24.82;100.00;94662.50;5071634;28;20449;-59
2023/06/16 07:14:41;;;;;;;0.53;0.53;;;;;;;25.00;100.00;94652.56;5071292;28;20477;-59
2023/06/16 07:17:09;;;;;;;0.60;0.50;;;;;;;25.57;100.00;94658.38;5071739;28;20444;-58
2023/06/16 07:19:39;;;;;;;2.63;1.13;;;;;;;25.04;100.00;94658.03;5070860;28;20446;-58
2023/06/16 07:22:07;;;;;;;0.50;0.50;;;;;;;25.69;97.69;94647.97;5071654;28;20449;-58
2023/06/16 07:24:36;;;;;;;0.60;0.50;;;;;;;26.16;95.63;94636.13;5058240;28;20456;-57
2023/06/16 07:27:05;;;;;;;2.90;1.03;;;;;;;25.62;94.26;94652.59;5071788;28;20448;-57
2023/06/16 07:29:33;;;;;;;0.50;0.50;;;;;;;25.37;100.00;94654.38;5071344;28;20514;-57
2023/06/16 07:32:02;;;;;;;0.67;0.57;;;;;;;25.27;98.64;94645.00;5068983;28;20503;-57
2023/06/16 07:34:30;;;;;;;0.40;0.40;;;;;;;25.65;95.61;94649.13;5070420;28;20540;-57
2023/06/16 07:37:00;;;;;;;0.70;0.70;;;;;;;26.71;91.01;94644.78;5071458;28;20826;-58
2023/06/16 07:39:29;;;;;;;0.83;0.80;;;;;;;26.48;88.88;94645.16;5071337;28;20495;-58
2023/06/16 07:41:57;;;;;;;1.83;0.97;;;;;;;26.41;89.54;94650.56;5071153;28;20438;-58
2023/06/16 07:44:26;;;;;;;0.43;0.40;;;;;;;27.03;87.98;94644.78;5071559;28;20498;-58
2023/06/16 07:46:54;;;;;;;1.10;1.10;;;;;;;26.47;85.80;94640.09;5070955;28;20437;-57
2023/06/16 07:49:22;;;;;;;0.87;0.87;;;;;;;26.79;89.23;94640.91;5071593;28;20438;-58
2023/06/16 07:51:51;;;;;;;0.93;0.93;;;;;;;26.88;86.17;94644.03;5070730;28;20437;-59
2023/06/16 07:54:21;;;;;;;1.00;0.40;;;;;;;27.21;85.65;94636.63;5071278;28;20505;-58
2023/06/16 07:56:50;;;;;;;1.23;1.13;;;;;;;27.53;83.49;94640.84;5070423;28;20537;-58
2023/06/16 07:59:18;;;;;;;5.03;0.40;;;;;;;27.49;81.23;94634.66;5070597;28;20442;-58
2023/06/16 08:01:47;;;;;;;2.10;1.63;;;;;;;27.50;87.04;94630.75;5070513;28;20477;-59
2023/06/16 08:04:15;;;;;;;0.47;0.47;;;;;;;27.18;82.93;94634.66;5070995;28;20449;-59
2023/06/16 08:06:44;;;;;;;0.60;0.60;;;;;;;27.37;80.18;94632.31;5071414;28;20452;-59
2023/06/16 08:09:14;;;;;;;1.20;1.10;;;;;;;27.30;80.40;94634.28;5071152;28;21559;-59
2023/06/16 08:11:44;;;;;;;1.43;0.60;;;;;;;27.79;79.17;94619.75;5070799;28;20451;-59
2023/06/16 08:14:12;;;;;;;0.50;0.50;;;;;;;28.12;77.38;94621.97;5070980;28;20491;-58
2023/06/16 08:16:40;;;;;;;0.97;0.87;;;;;;;28.75;74.66;94613.41;5070717;28;20433;-58
2023/06/16 08:19:09;;;;;;;0.53;0.53;;;;;;;28.85;77.65;94611.75;5071041;28;20445;-58
2023/06/16 08:21:38;;;;;;;7.13;0.70;;;;;;;29.16;75.13;94609.94;5071048;28;20426;-59
2023/06/16 08:24:07;;;;;;;0.60;0.60;;;;;;;28.70;68.53;94608.38;5071012;28;20483;-59
2023/06/16 08:26:35;;;;;;;2.60;0.50;;;;;;;28.83;71.76;94595.81;5070954;28;20499;-58
2023/06/16 08:29:06;;;;;;;0.60;0.40;;;;;;;28.27;73.23;94601.66;5070907;28;20483;-58
2023/06/16 08:31:35;;;;;;;0.53;0.53;;;;;;;27.94;71.69;94605.69;5073688;28;20441;-58
2023/06/16 08:34:03;;;;;;;0.50;0.50;;;;;;;28.16;65.87;94540.97;5074659;28;20465;-58
2023/06/16 08:36:33;;;;;;;0.57;0.57;;;;;;;28.66;68.52;94590.50;5074662;28;20772;-59
2023/06/16 08:39:02;;;;;;;3.37;0.63;;;;;;;29.07;68.99;94594.03;5074479;28;20434;-58
2023/06/16 08:41:31;;;;;;;0.87;0.40;;;;;;;30.00;61.83;94575.47;5074280;28;20442;-57
2023/06/16 08:44:02;;;;;;;0.70;0.60;;;;;;;29.76;59.23;94577.31;5074191;28;20437;-58
2023/06/16 08:46:32;;;;;;;5.40;0.50;;;;;;;29.85;52.17;94572.16;5074267;28;20452;-58
2023/06/16 08:49:00;;;;;;;0.60;0.50;;;;;;;30.17;54.60;94560.78;5074207;28;20862;-58
2023/06/16 08:51:33;;;;;;;0.40;0.40;;;;;;;29.50;54.52;94575.28;5074220;28;20445;-59
2023/06/16 08:54:04;;;;;;;0.40;0.37;;;;;;;29.34;53.62;94569.63;5073766;28;21221;-59
2023/06/16 08:56:33;;;;;;;0.40;0.30;;;;;;;30.33;51.17;94565.66;5073881;28;20516;-59
2023/06/16 08:59:03;;;;;;;0.43;0.40;;;;;;;29.99;51.00;94557.53;5074225;28;20441;-59
2023/06/16 09:01:33;;;;;;;0.40;0.30;;;;;;;30.10;48.07;94553.47;5073806;28;20527;-59
2023/06/16 09:04:03;;;;;;;0.90;0.90;;;;;;;28.94;47.45;94560.25;5074073;28;20441;-60
2023/06/16 09:06:33;;;;;;;0.60;0.60;;;;;;;29.08;48.85;94562.84;5073776;28;20449;-59
2023/06/16 09:09:01;;;;;;;0.40;0.30;;;;;;;29.90;47.28;94549.84;5073635;28;20441;-59
2023/06/16 09:11:30;;;;;;;0.50;0.40;;;;;;;30.56;50.40;94563.72;5074002;28;20444;-60
2023/06/16 09:13:58;;;;;;;0.30;0.30;;;;;;;30.06;47.92;94555.47;5068832;28;20474;-60
2023/06/16 09:16:27;;;;;;;0.70;0.63;;;;;;;28.57;48.44;94563.66;5071185;28;20448;-60
2023/06/16 09:19:07;;;;;;;0.43;0.37;;;;;;;28.91;50.92;94558.34;5073618;28;20433;-61
2023/06/16 09:21:37;;;;;;;0.40;0.30;;;;;;;28.46;46.98;94567.66;5073233;28;20437;-60
2023/06/16 09:24:14;;;;;;;1.03;0.60;;;;;;;28.10;49.15;94567.88;5073963;28;20960;-60
2023/06/16 09:26:43;;;;;;;1.00;0.40;;;;;;;27.65;48.81;94553.28;5073576;28;20442;-60
2023/06/16 09:29:23;;;;;;;0.40;0.40;;;;;;;28.40;52.04;94558.34;5073352;28;20979;-60
2023/06/16 09:31:52;;;;;;;0.47;0.37;;;;;;;28.71;49.03;94555.41;5073675;28;20442;-60
2023/06/16 09:34:22;;;;;;;1.13;0.40;;;;;;;28.13;51.49;94550.72;5073400;28;20939;-60
2023/06/16 09:36:52;;;;;;;0.40;0.40;;;;;;;28.06;50.89;94556.22;5073539;28;20437;-60
2023/06/16 09:39:24;;;;;;;0.43;0.30;;;;;;;28.24;51.94;94564.28;5073333;28;20445;-60
2023/06/16 09:41:54;;;;;;;0.47;0.47;;;;;;;27.95;50.47;94560.16;5072894;28;20441;-60
2023/06/16 09:44:25;;;;;;;0.40;0.40;;;;;;;28.69;51.74;94559.72;5073480;28;20938;-59
2023/06/16 09:46:54;;;;;;;0.40;0.30;;;;;;;29.59;49.10;94556.47;5073529;28;20503;-58
2023/06/16 09:49:25;;;;;;;0.50;0.50;;;;;;;30.79;48.37;94549.28;5073403;28;20445;-58
2023/06/16 09:51:55;;;;;;;0.50;0.30;;;;;;;31.12;47.10;94551.06;5073221;28;20816;-59
2023/06/16 09:54:25;;;;;;;0.50;0.40;;;;;;;30.68;46.79;94545.97;5073096;28;20464;-59
2023/06/16 09:56:55;;;;;;;0.40;0.30;;;;;;;31.62;46.81;94493.41;5072821;28;20437;-60
2023/06/16 09:59:26;;;;;;;0.40;0.40;;;;;;;32.45;43.94;94537.78;5072918;28;20444;-60
2023/06/16 10:01:55;;;;;;;0.40;0.30;;;;;;;31.83;42.36;94509.38;5072156;28;20490;-58
2023/06/16 10:04:26;;;;;;;3.03;0.97;;;;;;;31.04;42.80;94486.72;5073164;28;20445;-59
2023/06/16 10:07:00;;;;;;;0.60;0.60;;;;;;;30.71;45.58;94518.53;5073044;28;20497;-60
2023/06/16 10:09:33;;;;;;;0.53;0.37;;;;;;;30.57;42.97;94528.94;5072629;28;20999;-59
2023/06/16 10:12:03;;;;;;;0.50;0.40;;;;;;;29.79;43.92;94532.81;5072442;28;20441;-60
2023/06/16 10:14:35;;;;;;;0.40;0.30;;;;;;;30.74;46.95;94530.59;5072492;28;20957;-58
2023/06/16 10:17:05;;;;;;;1.93;0.80;;;;;;;30.73;45.34;94526.34;5072219;28;20437;-60
2023/06/16 10:19:39;;;;;;;0.50;0.50;;;;;;;31.00;44.91;94527.06;5072197;28;20528;-60
2023/06/16 10:22:07;;;;;;;0.63;0.63;;;;;;;30.14;46.38;94517.88;5072296;28;20441;-60
2023/06/16 10:24:40;;;;;;;0.50;0.40;;;;;;;30.56;44.99;94525.44;5072440;28;20443;-60
2023/06/16 10:27:10;;;;;;;0.63;0.50;;;;;;;30.69;45.29;94525.63;5072290;28;20436;-61
2023/06/16 10:29:40;;;;;;;0.50;0.50;;;;;;;29.72;47.39;94521.19;5072546;28;20459;-61
2023/06/16 10:32:10;;;;;;;0.40;0.40;;;;;;;29.90;47.59;94519.78;5071905;28;20490;-61
2023/06/16 10:34:48;;;;;;;0.50;0.30;;;;;;;29.95;48.26;94513.09;5072667;28;20495;-61
2023/06/16 10:37:18;;;;;;;1.63;1.00;;;;;;;29.25;47.93;94485.47;5071747;28;20480;-60
2023/06/16 10:39:47;;;;;;;0.40;0.30;;;;;;;30.07;49.63;94512.53;5072407;28;20441;-61
2023/06/16 10:42:16;;;;;;;0.60;0.50;;;;;;;29.56;48.61;94522.53;5072324;28;20441;-61
2023/06/16 10:44:44;;;;;;;0.50;0.40;;;;;;;29.52;49.56;94521.03;5072279;28;20921;-61
2023/06/16 10:47:37;;;;;;;1.07;0.80;;;;;;;29.19;49.91;94514.38;5071767;28;20975;-61
2023/06/16 10:50:07;;;;;;;0.40;0.37;;;;;;;28.86;51.14;94515.91;5071678;28;20452;-60
2023/06/16 10:52:52;;;;;;;0.50;0.33;;;;;;;28.56;51.50;94520.44;5071476;28;20449;-61
2023/06/16 10:55:35;;;;;;;0.37;0.30;;;;;;;27.91;50.65;94376.91;5071454;28;20526;-61
2023/06/16 10:58:26;;;;;;;0.40;0.30;;;;;;;29.05;51.46;94509.06;5072030;28;20449;-61
2023/06/16 11:01:04;;;;;;;0.50;0.40;;;;;;;29.09;53.01;94514.50;5050371;28;20437;-61
2023/06/16 11:03:43;;;;;;;0.67;0.50;;;;;;;28.04;53.95;94517.72;5071516;28;20435;-61
2023/06/16 11:06:13;;;;;;;0.53;0.53;;;;;;;28.01;54.19;94520.44;5071723;28;20441;-61
2023/06/16 11:08:52;;;;;;;0.30;0.30;;;;;;;27.35;54.93;94516.88;5058501;28;20433;-63
2023/06/16 11:11:21;;;;;;;0.40;0.30;;;;;;;27.12;56.87;94524.72;5072075;28;20806;-63
2023/06/16 11:13:51;;;;;;;0.90;0.70;;;;;;;27.32;56.18;94518.44;5071923;28;20456;-63
2023/06/16 11:16:19;;;;;;;0.60;0.50;;;;;;;26.80;55.67;94532.94;5071126;28;20485;-63
2023/06/16 11:18:51;;;;;;;0.57;0.40;;;;;;;27.04;57.23;94522.00;5071675;28;20507;-62
2023/06/16 11:21:21;;;;;;;0.60;0.50;;;;;;;26.63;57.35;94510.03;5071721;28;20862;-62
2023/06/16 11:23:50;;;;;;;0.60;0.40;;;;;;;26.39;56.88;94508.09;5072055;28;20897;-61
2023/06/16 11:26:20;;;;;;;0.70;0.70;;;;;;;26.38;60.11;94517.41;5071908;28;20848;-61
2023/06/16 11:28:52;;;;;;;0.50;0.50;;;;;;;26.37;59.64;94504.97;5071838;28;20498;-61
2023/06/16 11:31:20;;;;;;;0.40;0.30;;;;;;;26.82;60.13;94506.13;5071741;28;20492;-61
2023/06/16 11:33:54;;;;;;;3.37;0.57;;;;;;;26.77;58.22;94496.44;5071656;28;20441;-60
2023/06/16 11:36:25;;;;;;;0.57;0.57;;;;;;;26.71;58.78;94506.13;5071597;28;20886;-60
2023/06/16 11:38:56;;;;;;;0.53;0.40;;;;;;;26.59;60.01;94490.22;5071467;28;20437;-61
2023/06/16 11:41:29;;;;;;;0.93;0.93;;;;;;;26.65;61.17;94477.78;5071507;28;20444;-61